Time;durP1;ratioP1;P1;durP2;ratioP2;P2;SDS_P1;SDS_P2;PMS_P1;PMS_P2;Temp;Humidity;BMP_temperature;BMP_pressure;BME280_temperature;BME280_humidity;BME280_pressure;Samples;Min_cycle;Max_cycle;Signal;HPM_P1;HPM_P2
2023/06/24 00:00:40;;;;;;;5.00;4.57;;;;;;;;;;5011806;28;20449;-84
2023/06/24 00:03:07;;;;;;;4.85;4.55;;;;;;;;;;5012034;28;20468;-84
2023/06/24 00:05:33;;;;;;;4.80;4.40;;;;;;;;;;5011860;28;20404;-84
2023/06/24 00:08:02;;;;;;;4.80;4.40;;;;;;;;;;5011824;28;20411;-84
2023/06/24 00:10:29;;;;;;;4.70;4.40;;;;;;;;;;5018017;28;20375;-84
2023/06/24 00:12:55;;;;;;;5.30;4.80;;;;;;;;;;5019316;28;20394;-84
2023/06/24 00:15:21;;;;;;;6.70;4.32;;;;;;;;;;5018914;28;20418;-84
2023/06/24 00:17:50;;;;;;;4.55;4.25;;;;;;;;;;5025697;28;20396;-84
2023/06/24 00:20:17;;;;;;;4.75;4.45;;;;;;;;;;5025140;28;20439;-83
2023/06/24 00:22:48;;;;;;;4.80;4.40;;;;;;;;;;5011729;28;20377;-84
2023/06/24 00:25:14;;;;;;;5.22;4.72;;;;;;;;;;4993250;28;20404;-84
2023/06/24 00:27:41;;;;;;;5.18;4.78;;;;;;;;;;5011758;28;20393;-84
2023/06/24 00:30:08;;;;;;;4.80;4.50;;;;;;;;;;5011610;28;20869;-84
2023/06/24 00:32:34;;;;;;;5.00;4.60;;;;;;;;;;5011661;28;20384;-84
2023/06/24 00:35:00;;;;;;;5.03;4.63;;;;;;;;;;5011389;28;20419;-84
2023/06/24 00:37:26;;;;;;;5.10;4.70;;;;;;;;;;5011657;28;20412;-83
2023/06/24 00:39:52;;;;;;;5.22;4.80;;;;;;;;;;5011549;28;20822;-84
2023/06/24 00:42:18;;;;;;;4.78;4.28;;;;;;;;;;5011571;28;20381;-84
2023/06/24 00:44:44;;;;;;;4.67;4.27;;;;;;;;;;5011224;28;20878;-84
2023/06/24 00:47:10;;;;;;;4.75;4.40;;;;;;;;;;5011544;28;20385;-84
2023/06/24 00:49:36;;;;;;;5.28;4.88;;;;;;;;;;5011393;28;20381;-83
2023/06/24 00:52:03;;;;;;;5.03;4.63;;;;;;;;;;5011460;28;20778;-84
2023/06/24 00:54:31;;;;;;;5.05;4.65;;;;;;;;;;5010778;28;20388;-84
2023/06/24 00:56:57;;;;;;;5.15;4.50;;;;;;;;;;5011333;28;20385;-84
2023/06/24 00:59:23;;;;;;;4.82;4.43;;;;;;;;;;5011299;28;20396;-83
2023/06/24 01:01:52;;;;;;;5.13;4.63;;;;;;;;;;5010976;28;20430;-83
2023/06/24 01:04:19;;;;;;;4.68;4.18;;;;;;;;;;5011128;28;20409;-84
2023/06/24 01:06:46;;;;;;;4.68;4.35;;;;;;;;;;5011366;28;20877;-83
2023/06/24 01:09:12;;;;;;;5.13;4.65;;;;;;;;;;5011292;28;20380;-84
2023/06/24 01:11:39;;;;;;;5.05;4.65;;;;;;;;;;4993770;28;20389;-84
2023/06/24 01:14:05;;;;;;;4.57;4.27;;;;;;;;;;5011103;28;20389;-84
2023/06/24 01:16:31;;;;;;;5.10;4.60;;;;;;;;;;5016792;28;20382;-84
2023/06/24 01:19:00;;;;;;;4.75;4.35;;;;;;;;;;5021170;28;20385;-84
2023/06/24 01:21:34;;;;;;;4.80;4.40;;;;;;;;;;5020196;28;20864;-83
2023/06/24 01:26:52;;;;;;;4.80;4.50;;;;;;;;;;5028453;28;20578;-78
2023/06/24 01:29:24;;;;;;;4.93;4.45;;;;;;;;;;5011185;28;20435;-78
2023/06/24 01:31:50;;;;;;;4.75;4.45;;;;;;;;;;5010876;28;20401;-78
2023/06/24 01:34:16;;;;;;;4.80;4.45;;;;;;;;;;5022800;28;20402;-79
2023/06/24 01:36:56;;;;;;;4.65;4.25;;;;;;;;;;5032965;28;20376;-78
2023/06/24 01:39:23;;;;;;;4.78;4.40;;;;;;;;;;5034341;28;20375;-79
2023/06/24 01:41:54;;;;;;;4.30;4.00;;;;;;;;;;5034214;28;20390;-79
2023/06/24 01:44:20;;;;;;;4.88;4.47;;;;;;;;;;5018291;28;20416;-78
2023/06/24 01:46:47;;;;;;;5.10;4.70;;;;;;;;;;5017091;28;20875;-79
2023/06/24 01:49:15;;;;;;;4.82;4.43;;;;;;;;;;5014445;28;20373;-78
2023/06/24 01:51:42;;;;;;;4.80;4.50;;;;;;;;;;5014459;28;20432;-78
2023/06/24 01:54:11;;;;;;;5.20;4.72;;;;;;;;;;5014430;28;20870;-79
2023/06/24 01:56:38;;;;;;;4.90;4.53;;;;;;;;;;5014328;28;20424;-79
2023/06/24 01:59:05;;;;;;;5.00;4.60;;;;;;;;;;5014305;28;20389;-78
2023/06/24 02:01:32;;;;;;;5.20;4.80;;;;;;;;;;5014168;28;20439;-78
2023/06/24 02:03:59;;;;;;;4.68;4.30;;;;;;;;;;5014110;28;20918;-78
2023/06/24 02:06:27;;;;;;;4.60;4.20;;;;;;;;;;5014144;28;20404;-78
2023/06/24 02:08:53;;;;;;;4.65;4.35;;;;;;;;;;5013931;28;20738;-78
2023/06/24 02:11:20;;;;;;;4.40;4.10;;;;;;;;;;5014124;28;20381;-78
2023/06/24 02:13:46;;;;;;;4.00;3.70;;;;;;;;;;5014018;28;20376;-78
2023/06/24 02:16:13;;;;;;;4.38;4.07;;;;;;;;;;5014011;28;20385;-78
2023/06/24 02:18:43;;;;;;;4.45;4.05;;;;;;;;;;5013718;28;20396;-78
2023/06/24 02:21:09;;;;;;;4.55;4.15;;;;;;;;;;5013849;28;20543;-78
2023/06/24 02:23:38;;;;;;;4.80;4.40;;;;;;;;;;5013967;28;20381;-78
2023/06/24 02:26:05;;;;;;;4.70;4.30;;;;;;;;;;5013545;28;20828;-78
2023/06/24 02:28:32;;;;;;;4.65;3.97;;;;;;;;;;5010700;28;20381;-78
2023/06/24 02:30:58;;;;;;;4.50;4.10;;;;;;;;;;4998291;28;20926;-79
2023/06/24 02:33:24;;;;;;;4.40;4.00;;;;;;;;;;5009055;28;20394;-78
2023/06/24 02:35:50;;;;;;;4.35;4.05;;;;;;;;;;4999273;28;20395;-78
2023/06/24 02:38:16;;;;;;;4.20;3.90;;;;;;;;;;5007830;28;20389;-78
2023/06/24 02:40:44;;;;;;;4.40;4.00;;;;;;;;;;5013684;28;20389;-78
2023/06/24 02:43:10;;;;;;;4.20;3.90;;;;;;;;;;5013372;28;20384;-78
2023/06/24 02:45:36;;;;;;;4.20;3.80;;;;;;;;;;5013221;28;20415;-78
2023/06/24 02:48:02;;;;;;;4.43;4.13;;;;;;;;;;5011757;28;20430;-79
2023/06/24 02:50:28;;;;;;;4.10;3.80;;;;;;;;;;5013352;28;20843;-79
2023/06/24 02:52:55;;;;;;;3.95;3.67;;;;;;;;;;5013370;28;20385;-78
2023/06/24 02:55:21;;;;;;;4.70;4.35;;;;;;;;;;5013075;28;20395;-79
2023/06/24 02:57:48;;;;;;;5.03;4.53;;;;;;;;;;5013058;28;20395;-79
2023/06/24 03:00:14;;;;;;;4.57;4.18;;;;;;;;;;5013122;28;20867;-79
2023/06/24 03:02:42;;;;;;;4.40;4.10;;;;;;;;;;5013075;28;20396;-79
2023/06/24 03:05:09;;;;;;;4.55;4.15;;;;;;;;;;5012787;28;20425;-79
2023/06/24 03:07:36;;;;;;;4.55;4.25;;;;;;;;;;5012898;28;20531;-79
2023/06/24 03:10:03;;;;;;;4.43;4.03;;;;;;;;;;5012976;28;20379;-79
2023/06/24 03:12:29;;;;;;;4.50;4.20;;;;;;;;;;5012875;28;20475;-79
2023/06/24 03:14:55;;;;;;;4.30;4.00;;;;;;;;;;5012703;28;20435;-79
2023/06/24 03:17:21;;;;;;;4.25;3.95;;;;;;;;;;5012765;28;20711;-79
2023/06/24 03:19:47;;;;;;;4.90;4.50;;;;;;;;;;5012269;28;20862;-79
2023/06/24 03:22:13;;;;;;;4.63;4.32;;;;;;;;;;5012757;28;20385;-79
2023/06/24 03:24:39;;;;;;;4.72;4.40;;;;;;;;;;5012136;28;20413;-79
2023/06/24 03:27:05;;;;;;;4.77;4.33;;;;;;;;;;5012671;28;20463;-79
2023/06/24 03:29:31;;;;;;;5.28;4.78;;;;;;;;;;5012602;28;20377;-79
2023/06/24 03:31:57;;;;;;;6.32;4.18;;;;;;;;;;5015596;28;20880;-79
2023/06/24 03:34:23;;;;;;;4.77;4.37;;;;;;;;;;5031065;28;20445;-79
2023/06/24 03:36:49;;;;;;;4.43;4.13;;;;;;;;;;5028480;28;20456;-79
2023/06/24 03:39:16;;;;;;;4.47;4.15;;;;;;;;;;4994474;28;20879;-79
2023/06/24 03:41:42;;;;;;;4.70;4.30;;;;;;;;;;5005823;28;20721;-79
2023/06/24 03:44:08;;;;;;;4.10;3.80;;;;;;;;;;5005913;28;20417;-79
2023/06/24 03:46:34;;;;;;;4.05;3.75;;;;;;;;;;5008708;28;20386;-79
2023/06/24 03:49:00;;;;;;;4.43;4.13;;;;;;;;;;5003840;28;20372;-79
2023/06/24 03:51:26;;;;;;;4.60;4.20;;;;;;;;;;5012564;28;20737;-79
2023/06/24 03:53:52;;;;;;;4.60;4.30;;;;;;;;;;5010722;28;20389;-79
2023/06/24 03:56:18;;;;;;;4.20;3.90;;;;;;;;;;5012134;28;20392;-79
2023/06/24 03:58:44;;;;;;;4.20;3.90;;;;;;;;;;5011963;28;21043;-79
2023/06/24 04:01:10;;;;;;;4.80;3.90;;;;;;;;;;5010839;28;20388;-79
2023/06/24 04:03:36;;;;;;;5.18;4.30;;;;;;;;;;5011987;28;20893;-79
2023/06/24 04:06:03;;;;;;;4.50;4.10;;;;;;;;;;5012094;28;20912;-80
2023/06/24 04:08:29;;;;;;;4.50;4.10;;;;;;;;;;5011953;28;20381;-78
2023/06/24 04:10:55;;;;;;;5.80;4.20;;;;;;;;;;5011818;28;20376;-80
2023/06/24 04:13:21;;;;;;;4.30;4.00;;;;;;;;;;5012135;28;20790;-80
2023/06/24 04:15:47;;;;;;;4.55;4.20;;;;;;;;;;5011794;28;20389;-80
2023/06/24 04:18:14;;;;;;;4.30;3.90;;;;;;;;;;5011817;28;20400;-80
2023/06/24 04:20:40;;;;;;;4.60;4.20;;;;;;;;;;5011619;28;21067;-80
2023/06/24 04:23:09;;;;;;;4.43;4.03;;;;;;;;;;5011766;28;20395;-80
2023/06/24 04:25:35;;;;;;;4.75;4.35;;;;;;;;;;5011508;28;20436;-80
2023/06/24 04:28:01;;;;;;;4.10;3.70;;;;;;;;;;5011693;28;20384;-80
2023/06/24 04:30:27;;;;;;;4.50;4.10;;;;;;;;;;5011641;28;20477;-80
2023/06/24 04:32:53;;;;;;;4.50;3.80;;;;;;;;;;5011783;28;20378;-80
2023/06/24 04:35:19;;;;;;;4.18;3.88;;;;;;;;;;5011537;28;20381;-79
2023/06/24 04:37:45;;;;;;;4.57;4.20;;;;;;;;;;5011632;28;20392;-80
2023/06/24 04:40:13;;;;;;;4.30;4.00;;;;;;;;;;5011427;28;20884;-80
2023/06/24 04:42:39;;;;;;;5.00;4.03;;;;;;;;;;5011400;28;20385;-80
2023/06/24 04:45:05;;;;;;;4.60;4.20;;;;;;;;;;5011412;28;20853;-81
2023/06/24 04:47:31;;;;;;;4.00;3.70;;;;;;;;;;5011443;28;20385;-80
2023/06/24 04:49:57;;;;;;;4.40;4.05;;;;;;;;;;5011247;28;20416;-80
2023/06/24 04:52:26;;;;;;;4.30;4.00;;;;;;;;;;5011493;28;20431;-80
2023/06/24 04:54:52;;;;;;;4.57;3.80;;;;;;;;;;5010923;28;20423;-80
2023/06/24 04:57:31;;;;;;;3.70;3.40;;;;;;;;;;5011227;28;20385;-80
2023/06/24 04:59:58;;;;;;;4.03;3.70;;;;;;;;;;5011154;28;20389;-79
2023/06/24 05:02:24;;;;;;;3.80;3.50;;;;;;;;;;4996689;28;20398;-80
2023/06/24 05:04:50;;;;;;;4.05;3.75;;;;;;;;;;4991917;28;20472;-80
2023/06/24 05:07:16;;;;;;;3.85;3.55;;;;;;;;;;4995760;28;20429;-81
2023/06/24 05:09:43;;;;;;;4.40;4.05;;;;;;;;;;5006223;28;20460;-81
2023/06/24 05:12:09;;;;;;;3.92;3.63;;;;;;;;;;5014176;28;20380;-78
2023/06/24 05:14:36;;;;;;;4.25;3.85;;;;;;;;;;5015103;28;20396;-79
2023/06/24 05:17:02;;;;;;;4.28;3.97;;;;;;;;;;5014415;28;20882;-79
2023/06/24 05:19:28;;;;;;;4.07;3.70;;;;;;;;;;5014825;28;20393;-81
2023/06/24 05:21:54;;;;;;;4.07;3.78;;;;;;;;;;5017438;28;20385;-79
2023/06/24 05:24:20;;;;;;;4.38;3.97;;;;;;;;;;5013144;28;20412;-80
2023/06/24 05:26:48;;;;;;;4.28;3.97;;;;;;;;;;5015134;28;20731;-78
2023/06/24 05:29:14;;;;;;;4.13;3.72;;;;;;;;;;5014494;28;20435;-78
2023/06/24 05:31:40;;;;;;;4.10;3.80;;;;;;;;;;5018316;28;20391;-78
2023/06/24 05:34:07;;;;;;;3.72;3.42;;;;;;;;;;5014633;28;20373;-79
2023/06/24 05:36:33;;;;;;;4.43;4.03;;;;;;;;;;5014700;28;20903;-78
2023/06/24 05:38:59;;;;;;;3.93;3.63;;;;;;;;;;5014357;28;20416;-78
2023/06/24 05:41:25;;;;;;;4.07;3.67;;;;;;;;;;5014566;28;20389;-79
2023/06/24 05:44:01;;;;;;;3.75;3.45;;;;;;;;;;5014455;28;20377;-78
2023/06/24 05:46:27;;;;;;;3.90;3.60;;;;;;;;;;5014495;28;20409;-78
2023/06/24 05:48:53;;;;;;;3.83;3.53;;;;;;;;;;5016706;28;20423;-78
2023/06/24 05:51:19;;;;;;;3.87;3.57;;;;;;;;;;5014340;28;20383;-78
2023/06/24 05:53:45;;;;;;;3.90;3.60;;;;;;;;;;5014281;28;20810;-78
2023/06/24 05:56:11;;;;;;;3.80;3.50;;;;;;;;;;5014107;28;20381;-79
2023/06/24 05:58:37;;;;;;;4.05;3.70;;;;;;;;;;5014209;28;20889;-79
2023/06/24 06:01:03;;;;;;;4.10;3.60;;;;;;;;;;5014510;28;20775;-78
2023/06/24 06:03:29;;;;;;;4.00;3.70;;;;;;;;;;5014178;28;20443;-79
2023/06/24 06:05:55;;;;;;;3.63;3.33;;;;;;;;;;5013939;28;20436;-79
2023/06/24 06:08:21;;;;;;;4.10;3.80;;;;;;;;;;5014239;28;20408;-79
2023/06/24 06:10:47;;;;;;;3.95;3.65;;;;;;;;;;5014046;28;20383;-78
2023/06/24 06:13:13;;;;;;;4.28;3.97;;;;;;;;;;5013986;28;20385;-79
2023/06/24 06:15:39;;;;;;;4.53;4.13;;;;;;;;;;5013592;28;20472;-79
2023/06/24 06:18:05;;;;;;;4.20;3.90;;;;;;;;;;5013915;28;20487;-79
2023/06/24 06:20:31;;;;;;;4.50;4.10;;;;;;;;;;5012789;28;20812;-79
2023/06/24 06:22:57;;;;;;;4.50;4.10;;;;;;;;;;5001662;28;20472;-79
2023/06/24 06:25:23;;;;;;;4.40;4.00;;;;;;;;;;5008682;28;20413;-79
2023/06/24 06:27:49;;;;;;;4.90;4.07;;;;;;;;;;4999662;28;20416;-79
2023/06/24 06:30:16;;;;;;;4.07;3.75;;;;;;;;;;5013201;28;20384;-79
2023/06/24 06:32:42;;;;;;;4.35;3.65;;;;;;;;;;5013683;28;20385;-79
2023/06/24 06:35:08;;;;;;;4.15;3.85;;;;;;;;;;5013223;28;20909;-79
2023/06/24 06:37:34;;;;;;;3.97;3.63;;;;;;;;;;5013599;28;20866;-78
2023/06/24 06:40:00;;;;;;;4.20;3.80;;;;;;;;;;5013462;28;20392;-79
2023/06/24 06:42:26;;;;;;;4.32;4.00;;;;;;;;;;5013548;28;20475;-79
2023/06/24 06:44:52;;;;;;;4.73;4.30;;;;;;;;;;5013112;28;20496;-79
2023/06/24 06:47:18;;;;;;;5.40;4.90;;;;;;;;;;5013480;28;20381;-80
2023/06/24 06:49:44;;;;;;;4.72;4.32;;;;;;;;;;5013354;28;20416;-80
2023/06/24 06:52:10;;;;;;;4.03;3.63;;;;;;;;;;5013658;28;20446;-80
2023/06/24 06:54:36;;;;;;;4.15;3.70;;;;;;;;;;5013040;28;20389;-80
2023/06/24 06:57:03;;;;;;;3.65;3.35;;;;;;;;;;5013354;28;20480;-80
2023/06/24 06:59:29;;;;;;;3.20;3.00;;;;;;;;;;5013263;28;20747;-79
2023/06/24 07:01:55;;;;;;;4.65;3.60;;;;;;;;;;5013373;28;20393;-79
2023/06/24 07:04:21;;;;;;;4.00;3.55;;;;;;;;;;5012895;28;20413;-79
2023/06/24 07:06:46;;;;;;;3.70;3.40;;;;;;;;;;5012764;28;20445;-79
2023/06/24 07:09:12;;;;;;;3.87;3.57;;;;;;;;;;5013160;28;20480;-79
2023/06/24 07:11:38;;;;;;;3.70;3.40;;;;;;;;;;5013082;28;20422;-79
2023/06/24 07:14:04;;;;;;;3.55;3.22;;;;;;;;;;5012622;28;20377;-79
2023/06/24 07:16:30;;;;;;;3.65;3.35;;;;;;;;;;5013073;28;20978;-82
2023/06/24 07:18:56;;;;;;;3.75;3.50;;;;;;;;;;5012946;28;20376;-79
2023/06/24 07:21:22;;;;;;;3.60;3.30;;;;;;;;;;5015255;28;20500;-80
2023/06/24 07:23:48;;;;;;;3.50;3.20;;;;;;;;;;4999165;28;20755;-80
2023/06/24 07:26:14;;;;;;;4.00;3.70;;;;;;;;;;5003591;28;20509;-79
2023/06/24 07:28:40;;;;;;;3.90;3.60;;;;;;;;;;5003275;28;20393;-80
2023/06/24 07:31:07;;;;;;;3.80;3.50;;;;;;;;;;5000041;28;20414;-79
2023/06/24 07:33:33;;;;;;;3.55;3.28;;;;;;;;;;5005637;28;20385;-80
2023/06/24 07:35:59;;;;;;;3.63;3.35;;;;;;;;;;5021844;28;20391;-80
2023/06/24 07:38:25;;;;;;;3.67;3.38;;;;;;;;;;5014034;28;20388;-80
2023/06/24 07:40:50;;;;;;;3.70;3.40;;;;;;;;;;5012452;28;20483;-79
2023/06/24 07:43:16;;;;;;;3.72;3.42;;;;;;;;;;5012486;28;20414;-79
2023/06/24 07:45:43;;;;;;;4.15;3.85;;;;;;;;;;5012338;28;20409;-81
2023/06/24 07:48:09;;;;;;;4.68;3.90;;;;;;;;;;5012246;28;20472;-81
2023/06/24 07:50:35;;;;;;;4.30;3.90;;;;;;;;;;5048498;22;20519;-82
2023/06/24 07:53:02;;;;;;;3.90;3.60;;;;;;;;;;5031865;28;20388;-84
2023/06/24 07:55:28;;;;;;;3.70;3.40;;;;;;;;;;5031823;28;20469;-83
2023/06/24 07:57:54;;;;;;;4.07;3.67;;;;;;;;;;5055231;28;20880;-83
2023/06/24 08:00:20;;;;;;;4.13;3.72;;;;;;;;;;5071336;28;20441;-83
2023/06/24 08:02:46;;;;;;;4.40;3.65;;;;;;;;;;5071680;28;20872;-83
2023/06/24 08:05:12;;;;;;;4.18;3.88;;;;;;;;;;5071533;28;20411;-83
2023/06/24 08:07:38;;;;;;;3.67;3.38;;;;;;;;;;5071620;28;20376;-82
2023/06/24 08:10:04;;;;;;;3.45;3.15;;;;;;;;;;5071286;28;20402;-83
2023/06/24 08:12:31;;;;;;;3.30;3.08;;;;;;;;;;5071610;28;20376;-83
2023/06/24 08:14:57;;;;;;;3.72;3.45;;;;;;;;;;5071544;28;20477;-82
2023/06/24 08:17:23;;;;;;;3.33;3.13;;;;;;;;;;5071504;28;20798;-82
2023/06/24 08:19:49;;;;;;;3.47;3.17;;;;;;;;;;5071316;28;20387;-82
2023/06/24 08:22:15;;;;;;;4.90;3.25;;;;;;;;;;5071361;28;20390;-83
2023/06/24 08:24:41;;;;;;;4.38;3.25;;;;;;;;;;5063628;28;20852;-82
2023/06/24 08:27:08;;;;;;;3.10;2.90;;;;;;;;;;5041582;28;20380;-82
2023/06/24 08:29:34;;;;;;;3.30;3.10;;;;;;;;;;5043554;28;20377;-82
2023/06/24 08:32:00;;;;;;;3.67;3.38;;;;;;;;;;5034869;28;20381;-84
2023/06/24 08:34:26;;;;;;;3.50;3.20;;;;;;;;;;5046833;28;20385;-82
2023/06/24 08:36:52;;;;;;;3.58;3.28;;;;;;;;;;5031375;28;20887;-83
2023/06/24 08:39:18;;;;;;;3.70;3.35;;;;;;;;;;5031105;28;20390;-82
2023/06/24 08:41:44;;;;;;;3.75;3.42;;;;;;;;;;5031179;28;20382;-82
2023/06/24 08:44:10;;;;;;;3.40;3.03;;;;;;;;;;5031153;28;20737;-82
2023/06/24 08:46:36;;;;;;;3.50;3.20;;;;;;;;;;5033534;28;20432;-83
2023/06/24 08:49:14;;;;;;;3.67;3.10;;;;;;;;;;5035165;28;20409;-82
2023/06/24 08:51:41;;;;;;;4.03;3.47;;;;;;;;;;5035023;28;20406;-82
2023/06/24 08:54:09;;;;;;;3.47;3.25;;;;;;;;;;5035342;28;20375;-83
2023/06/24 08:56:38;;;;;;;3.70;3.40;;;;;;;;;;5034263;28;20391;-83
2023/06/24 08:59:04;;;;;;;3.33;2.95;;;;;;;;;;5034988;28;20410;-83
2023/06/24 09:01:30;;;;;;;4.60;3.10;;;;;;;;;;5033848;28;20406;-83
2023/06/24 09:03:56;;;;;;;3.30;3.00;;;;;;;;;;5036639;28;20739;-82
2023/06/24 09:06:22;;;;;;;3.22;3.00;;;;;;;;;;5035768;28;20406;-83
2023/06/24 09:08:55;;;;;;;3.28;3.05;;;;;;;;;;5034827;28;20525;-82
2023/06/24 09:11:27;;;;;;;3.70;2.92;;;;;;;;;;5034963;28;20410;-83
2023/06/24 09:14:00;;;;;;;3.00;2.80;;;;;;;;;;5034986;28;20378;-82
2023/06/24 09:16:27;;;;;;;3.60;3.30;;;;;;;;;;5035054;28;20414;-83
2023/06/24 09:18:53;;;;;;;3.33;3.03;;;;;;;;;;5034787;28;20729;-82
2023/06/24 09:21:27;;;;;;;3.45;3.25;;;;;;;;;;5045204;28;20801;-83
2023/06/24 09:23:53;;;;;;;3.60;3.30;;;;;;;;;;5054772;28;20373;-82
2023/06/24 09:26:19;;;;;;;3.60;3.30;;;;;;;;;;5064657;28;20401;-83
2023/06/24 09:28:49;;;;;;;3.35;3.05;;;;;;;;;;5073452;28;20467;-83
2023/06/24 09:31:15;;;;;;;3.70;3.40;;;;;;;;;;5046311;28;20413;-82
2023/06/24 09:33:41;;;;;;;3.33;3.13;;;;;;;;;;5062735;28;20383;-83
2023/06/24 09:36:11;;;;;;;3.55;3.25;;;;;;;;;;5048874;28;20394;-83
2023/06/24 09:38:41;;;;;;;3.60;3.10;;;;;;;;;;5040297;28;20392;-83
2023/06/24 09:41:07;;;;;;;3.40;3.10;;;;;;;;;;5037966;28;20387;-82
2023/06/24 09:43:39;;;;;;;3.35;3.13;;;;;;;;;;5042788;28;20403;-82
2023/06/24 09:46:05;;;;;;;3.33;3.03;;;;;;;;;;5074082;28;20435;-83
2023/06/24 09:48:31;;;;;;;3.22;2.92;;;;;;;;;;5074160;28;20384;-83
2023/06/24 09:51:00;;;;;;;3.35;3.13;;;;;;;;;;5074065;28;20400;-82
2023/06/24 09:53:27;;;;;;;3.05;2.85;;;;;;;;;;5074184;28;20372;-83
2023/06/24 09:55:53;;;;;;;2.95;2.75;;;;;;;;;;5073919;28;20380;-83
2023/06/24 09:58:19;;;;;;;3.30;3.10;;;;;;;;;;5073682;28;20464;-83
2023/06/24 10:00:45;;;;;;;3.03;2.80;;;;;;;;;;5073732;28;20430;-83
2023/06/24 10:03:12;;;;;;;3.00;2.80;;;;;;;;;;5074119;28;20437;-83
2023/06/24 10:05:38;;;;;;;3.83;3.53;;;;;;;;;;5072270;28;20781;-83
2023/06/24 10:08:08;;;;;;;3.35;3.15;;;;;;;;;;5073891;28;20372;-83
2023/06/24 10:10:34;;;;;;;3.30;3.00;;;;;;;;;;5072777;28;20380;-83
2023/06/24 10:13:00;;;;;;;3.08;2.88;;;;;;;;;;5073803;28;20375;-84
2023/06/24 10:15:26;;;;;;;3.10;2.90;;;;;;;;;;5078154;28;20395;-83
2023/06/24 10:17:52;;;;;;;4.15;3.85;;;;;;;;;;5073698;28;20395;-83
2023/06/24 10:20:27;;;;;;;3.90;3.53;;;;;;;;;;5073853;28;20388;-83
2023/06/24 10:22:53;;;;;;;3.53;3.30;;;;;;;;;;5073915;28;20383;-83
2023/06/24 10:25:20;;;;;;;3.35;3.05;;;;;;;;;;5073339;28;20538;-82
2023/06/24 10:27:53;;;;;;;3.38;3.08;;;;;;;;;;5072265;28;20726;-83
2023/06/24 10:30:21;;;;;;;3.53;3.22;;;;;;;;;;5073458;28;20372;-83
2023/06/24 10:32:51;;;;;;;3.20;2.90;;;;;;;;;;5073543;28;20887;-82
2023/06/24 10:35:25;;;;;;;2.95;2.75;;;;;;;;;;5071929;28;20387;-82
2023/06/24 10:37:55;;;;;;;2.80;2.60;;;;;;;;;;5073465;28;20388;-83
2023/06/24 10:40:35;;;;;;;3.40;3.13;;;;;;;;;;5073334;28;20780;-82
2023/06/24 10:43:01;;;;;;;3.13;2.90;;;;;;;;;;5073131;28;20412;-83
2023/06/24 10:45:27;;;;;;;3.78;2.83;;;;;;;;;;5073142;28;20419;-82
2023/06/24 10:47:56;;;;;;;3.72;2.78;;;;;;;;;;5044214;28;20784;-82
2023/06/24 10:50:25;;;;;;;2.83;2.63;;;;;;;;;;5047855;28;20468;-83
2023/06/24 10:52:56;;;;;;;3.95;2.83;;;;;;;;;;5042734;28;20388;-83
2023/06/24 10:55:29;;;;;;;2.95;2.75;;;;;;;;;;5038342;28;20406;-83
2023/06/24 10:57:55;;;;;;;2.92;2.72;;;;;;;;;;5031967;28;20414;-83
2023/06/24 11:00:22;;;;;;;3.55;3.25;;;;;;;;;;5032945;28;20390;-82
2023/06/24 11:02:48;;;;;;;2.70;2.50;;;;;;;;;;5032722;28;20465;-82
2023/06/24 11:05:14;;;;;;;3.05;2.85;;;;;;;;;;5032840;28;20498;-83
2023/06/24 11:07:40;;;;;;;3.13;2.92;;;;;;;;;;5035203;28;20941;-83
2023/06/24 11:10:07;;;;;;;4.13;2.83;;;;;;;;;;5030801;28;20386;-83
2023/06/24 11:12:37;;;;;;;2.85;2.65;;;;;;;;;;5032554;28;20413;-83
2023/06/24 11:15:05;;;;;;;3.30;3.00;;;;;;;;;;5031457;28;20387;-82
2023/06/24 11:17:31;;;;;;;3.03;2.83;;;;;;;;;;5046580;28;20390;-83
2023/06/24 11:19:58;;;;;;;2.80;2.60;;;;;;;;;;5052568;28;20417;-83
2023/06/24 11:22:24;;;;;;;4.03;2.70;;;;;;;;;;5048328;28;20414;-82
2023/06/24 11:24:50;;;;;;;2.92;2.72;;;;;;;;;;5032409;28;20446;-81
2023/06/24 11:27:16;;;;;;;2.55;2.42;;;;;;;;;;5031168;28;20877;-82
2023/06/24 11:29:42;;;;;;;3.08;2.78;;;;;;;;;;5062278;28;20379;-82
2023/06/24 11:32:09;;;;;;;2.80;2.60;;;;;;;;;;5072020;28;20380;-82
2023/06/24 11:34:38;;;;;;;3.05;2.70;;;;;;;;;;5072257;28;20460;-82
2023/06/24 11:37:14;;;;;;;2.53;2.33;;;;;;;;;;5071884;28;20387;-83
2023/06/24 11:39:40;;;;;;;3.42;2.90;;;;;;;;;;5072153;28;20402;-83
2023/06/24 11:42:08;;;;;;;2.65;2.55;;;;;;;;;;5071789;28;20392;-82
2023/06/24 11:44:34;;;;;;;2.73;2.47;;;;;;;;;;5071807;28;20949;-82
2023/06/24 11:47:06;;;;;;;3.60;2.53;;;;;;;;;;5071994;28;20922;-81
2023/06/24 11:49:32;;;;;;;2.70;2.50;;;;;;;;;;5051865;28;20392;-82
2023/06/24 11:51:58;;;;;;;3.03;2.40;;;;;;;;;;5033621;28;20898;-82
2023/06/24 11:54:24;;;;;;;2.70;2.50;;;;;;;;;;5046361;28;20383;-82
2023/06/24 11:56:52;;;;;;;3.00;2.78;;;;;;;;;;5037720;28;20960;-82
2023/06/24 11:59:26;;;;;;;3.00;2.47;;;;;;;;;;5037842;28;20489;-82
2023/06/24 12:01:56;;;;;;;2.70;2.50;;;;;;;;;;5031603;28;20391;-82
2023/06/24 12:04:28;;;;;;;2.90;2.60;;;;;;;;;;5031060;28;20384;-81
2023/06/24 12:06:54;;;;;;;2.70;2.50;;;;;;;;;;5068858;28;20877;-82
2023/06/24 12:09:20;;;;;;;2.92;2.72;;;;;;;;;;5071620;28;20391;-82
2023/06/24 12:11:46;;;;;;;2.25;2.15;;;;;;;;;;5071484;28;20383;-81
2023/06/24 12:14:12;;;;;;;2.55;2.35;;;;;;;;;;5070563;28;20387;-82
2023/06/24 12:16:39;;;;;;;2.63;2.42;;;;;;;;;;5071542;28;20383;-82
2023/06/24 12:19:05;;;;;;;2.80;2.60;;;;;;;;;;5071379;28;20418;-81
2023/06/24 12:21:31;;;;;;;3.15;2.50;;;;;;;;;;5071203;28;20384;-82
2023/06/24 12:23:57;;;;;;;2.60;2.40;;;;;;;;;;5070427;28;20391;-82
2023/06/24 12:26:23;;;;;;;2.67;2.47;;;;;;;;;;5071393;28;20893;-81
2023/06/24 12:28:50;;;;;;;2.50;2.30;;;;;;;;;;5071607;28;20376;-82
2023/06/24 12:31:16;;;;;;;2.33;2.15;;;;;;;;;;5071519;28;20718;-82
2023/06/24 12:33:42;;;;;;;2.60;2.40;;;;;;;;;;5072682;28;20380;-82
2023/06/24 12:36:08;;;;;;;2.70;2.50;;;;;;;;;;5070026;28;20383;-82
2023/06/24 12:38:35;;;;;;;2.70;2.50;;;;;;;;;;5071185;28;20828;-82
2023/06/24 12:41:02;;;;;;;2.60;2.40;;;;;;;;;;5071176;28;20383;-82
2023/06/24 12:43:27;;;;;;;2.63;2.43;;;;;;;;;;5071976;28;20407;-82
2023/06/24 12:45:55;;;;;;;2.77;2.37;;;;;;;;;;5071576;28;20485;-81
2023/06/24 12:48:21;;;;;;;2.70;2.50;;;;;;;;;;5071309;28;20407;-82
2023/06/24 12:50:48;;;;;;;2.35;2.20;;;;;;;;;;5070861;28;20481;-82
2023/06/24 12:53:15;;;;;;;2.38;2.17;;;;;;;;;;5071284;28;20387;-82
2023/06/24 12:55:41;;;;;;;2.70;2.50;;;;;;;;;;5058775;28;20480;-82
2023/06/24 12:58:08;;;;;;;2.50;2.28;;;;;;;;;;5042511;28;20399;-82
2023/06/24 13:00:34;;;;;;;2.50;2.35;;;;;;;;;;5039882;28;20953;-82
2023/06/24 13:03:00;;;;;;;2.58;2.38;;;;;;;;;;5043329;28;20477;-82
2023/06/24 13:05:26;;;;;;;2.90;2.70;;;;;;;;;;5050496;28;20409;-82
2023/06/24 13:07:52;;;;;;;2.40;2.20;;;;;;;;;;5049877;28;20380;-82
2023/06/24 13:10:18;;;;;;;2.80;2.60;;;;;;;;;;5047428;28;20377;-83
2023/06/24 13:12:44;;;;;;;2.63;2.42;;;;;;;;;;5045798;28;20893;-83
2023/06/24 13:15:10;;;;;;;2.60;2.40;;;;;;;;;;5049644;28;20393;-83
2023/06/24 13:17:36;;;;;;;2.80;2.60;;;;;;;;;;5050743;28;20389;-83
2023/06/24 13:20:04;;;;;;;2.80;2.60;;;;;;;;;;5050785;28;20377;-82
2023/06/24 13:22:30;;;;;;;2.30;2.10;;;;;;;;;;5050908;28;20373;-83
2023/06/24 13:24:56;;;;;;;2.37;2.17;;;;;;;;;;5050836;28;20433;-82
2023/06/24 13:27:23;;;;;;;2.70;2.50;;;;;;;;;;5050880;28;20378;-82
2023/06/24 13:29:49;;;;;;;2.65;2.45;;;;;;;;;;5050863;28;20468;-82
2023/06/24 13:32:15;;;;;;;2.70;2.50;;;;;;;;;;5052221;28;20464;-82
2023/06/24 13:34:41;;;;;;;3.38;2.22;;;;;;;;;;5054541;28;20389;-82
2023/06/24 13:37:07;;;;;;;2.70;2.50;;;;;;;;;;5054296;28;20393;-83
2023/06/24 13:39:33;;;;;;;2.55;2.35;;;;;;;;;;5068249;28;20387;-83
2023/06/24 13:42:00;;;;;;;2.50;2.30;;;;;;;;;;5074353;28;20440;-82
2023/06/24 13:44:26;;;;;;;2.63;2.42;;;;;;;;;;5074005;28;20822;-82
2023/06/24 13:46:53;;;;;;;2.33;2.22;;;;;;;;;;5074129;28;20466;-83
2023/06/24 13:49:19;;;;;;;2.75;2.40;;;;;;;;;;5074342;28;20388;-83
2023/06/24 13:51:45;;;;;;;2.60;2.40;;;;;;;;;;5074020;28;20486;-82
2023/06/24 13:54:11;;;;;;;2.80;2.60;;;;;;;;;;5073807;28;20379;-83
2023/06/24 13:56:37;;;;;;;3.60;2.80;;;;;;;;;;5073895;28;20919;-83
2023/06/24 13:59:03;;;;;;;3.25;2.95;;;;;;;;;;5074190;28;20426;-83
2023/06/24 14:01:31;;;;;;;5.03;4.53;;;;;;;;;;5066917;28;20384;-82
2023/06/24 14:03:57;;;;;;;3.90;3.60;;;;;;;;;;5039082;28;20459;-82
2023/06/24 14:06:23;;;;;;;3.30;3.10;;;;;;;;;;5043905;28;20409;-82
2023/06/24 14:08:50;;;;;;;3.10;2.90;;;;;;;;;;5045562;28;20377;-82
2023/06/24 14:11:16;;;;;;;3.53;2.65;;;;;;;;;;5049129;28;20490;-82
2023/06/24 14:13:43;;;;;;;2.90;2.70;;;;;;;;;;5072293;28;20779;-83
2023/06/24 14:16:10;;;;;;;2.90;2.70;;;;;;;;;;5073871;28;20386;-83
2023/06/24 14:18:36;;;;;;;2.67;2.47;;;;;;;;;;5073819;28;20787;-83
2023/06/24 14:21:03;;;;;;;2.65;2.45;;;;;;;;;;5073652;28;20383;-83
2023/06/24 14:23:30;;;;;;;3.10;2.90;;;;;;;;;;5073433;28;20880;-82
2023/06/24 14:25:56;;;;;;;3.17;2.88;;;;;;;;;;5073615;28;20886;-82
2023/06/24 14:28:22;;;;;;;2.85;2.65;;;;;;;;;;5073612;28;20375;-83
2023/06/24 14:30:48;;;;;;;2.85;2.65;;;;;;;;;;5073505;28;20390;-83
2023/06/24 14:33:14;;;;;;;2.83;2.63;;;;;;;;;;5073336;28;20403;-82
2023/06/24 14:35:41;;;;;;;3.30;2.78;;;;;;;;;;5072153;28;20953;-83
2023/06/24 14:38:07;;;;;;;3.13;2.83;;;;;;;;;;5073355;28;20465;-83
2023/06/24 14:40:33;;;;;;;2.80;2.60;;;;;;;;;;5073327;28;20479;-83
2023/06/24 14:43:00;;;;;;;3.03;2.83;;;;;;;;;;5072227;28;20419;-83